Time;durP1;ratioP1;P1;durP2;ratioP2;P2;SDS_P1;SDS_P2;PMS_P1;PMS_P2;Temp;Humidity;BMP_temperature;BMP_pressure;BME280_temperature;BME280_humidity;BME280_pressure;Samples;Min_cycle;Max_cycle;Signal;HPM_P1;HPM_P2
2023/11/12 00:01:56;;;;;;;132.78;61.48;;;;;;;7.45;95.77;98898.97;1694064;84;25641;-55
2023/11/12 00:04:24;;;;;;;129.78;60.48;;;;;;;7.44;95.83;98898.75;1694104;84;25479;-56
2023/11/12 00:06:51;;;;;;;131.05;60.30;;;;;;;7.43;95.81;98895.82;1694109;84;26161;-54
2023/11/12 00:09:18;;;;;;;121.42;58.87;;;;;;;7.43;95.93;98899.86;1694137;84;25487;-52
2023/11/12 00:11:45;;;;;;;126.65;59.30;;;;;;;7.40;95.87;98900.49;1694092;84;27368;-55
2023/11/12 00:14:12;;;;;;;122.17;60.05;;;;;;;7.40;95.91;98903.19;1693915;84;25442;-55
2023/11/12 00:16:39;;;;;;;123.58;60.52;;;;;;;7.41;96.12;98901.30;1694093;84;25587;-54
2023/11/12 00:19:06;;;;;;;132.75;63.02;;;;;;;7.40;96.21;98901.06;1694095;84;25634;-54
2023/11/12 00:21:33;;;;;;;123.28;61.95;;;;;;;7.39;96.00;98900.81;1694151;84;25395;-54
2023/11/12 00:24:02;;;;;;;130.47;61.25;;;;;;;7.36;96.06;98900.91;1694090;84;27347;-56
2023/11/12 00:26:29;;;;;;;136.70;62.08;;;;;;;7.36;96.18;98900.12;1694302;84;25641;-57
2023/11/12 00:28:55;;;;;;;130.50;60.60;;;;;;;7.35;96.19;98896.63;1694354;84;25425;-52
2023/11/12 00:31:23;;;;;;;134.07;60.73;;;;;;;7.32;96.01;98898.64;1694340;84;25629;-55
2023/11/12 00:33:51;;;;;;;124.20;59.15;;;;;;;7.31;96.07;98897.05;1694243;84;25730;-52
2023/11/12 00:36:19;;;;;;;123.90;58.45;;;;;;;7.30;96.07;98898.16;1694104;84;27429;-55
2023/11/12 00:38:47;;;;;;;120.75;55.70;;;;;;;7.29;96.15;98906.00;1693971;84;25683;-55
2023/11/12 00:41:19;;;;;;;121.90;58.23;;;;;;;7.26;96.03;98897.22;1694111;84;25395;-52
2023/11/12 00:43:47;;;;;;;110.83;52.78;;;;;;;7.23;96.12;98902.67;1694084;84;25630;-54
2023/11/12 00:46:15;;;;;;;117.80;56.08;;;;;;;7.20;96.13;98898.49;1694086;84;25672;-56
2023/11/12 00:48:44;;;;;;;112.08;55.08;;;;;;;7.18;96.25;98903.41;1694092;84;27414;-57
2023/11/12 00:51:11;;;;;;;114.65;53.68;;;;;;;7.17;96.21;98897.78;1694238;84;25623;-52
2023/11/12 00:53:38;;;;;;;117.50;54.15;;;;;;;7.16;96.44;98898.34;1694074;84;25587;-53
2023/11/12 00:56:07;;;;;;;111.68;54.30;;;;;;;7.16;96.58;98908.33;1693975;84;25636;-54
2023/11/12 00:58:34;;;;;;;116.10;54.40;;;;;;;7.14;96.61;98899.23;1694227;84;25634;-54
2023/11/12 01:01:01;;;;;;;114.22;52.85;;;;;;;7.15;96.74;98905.39;1694047;84;27972;-56
2023/11/12 01:03:32;;;;;;;121.70;55.38;;;;;;;7.16;96.89;98904.28;1693989;84;25406;-55
2023/11/12 01:05:57;;;;;;;113.88;53.02;;;;;;;7.15;96.76;98904.04;1693776;84;25584;-56
2023/11/12 01:08:23;;;;;;;104.97;50.83;;;;;;;7.14;96.75;98897.88;1694023;84;25629;-56
2023/11/12 01:10:53;;;;;;;111.47;54.05;;;;;;;7.11;96.83;98893.92;1654500;85;25454;-54
2023/11/12 01:13:19;;;;;;;113.65;53.05;;;;;;;7.10;96.81;98900.42;1671512;85;27352;-53
2023/11/12 01:15:46;;;;;;;108.37;53.17;;;;;;;7.08;96.79;98903.99;1671796;85;25443;-53
2023/11/12 01:18:13;;;;;;;108.97;53.08;;;;;;;7.09;96.96;98898.05;1671883;85;25474;-53
2023/11/12 01:20:40;;;;;;;110.40;52.25;;;;;;;7.07;96.86;98897.02;1671737;85;25611;-56
2023/11/12 01:23:08;;;;;;;108.97;50.33;;;;;;;7.05;96.88;98903.28;1671900;85;25662;-53
2023/11/12 01:25:36;;;;;;;108.20;52.03;;;;;;;7.04;97.04;98898.22;1670809;85;27417;-56
2023/11/12 01:28:04;;;;;;;108.27;50.75;;;;;;;7.03;97.12;98904.16;1670415;85;25764;-56
2023/11/12 01:30:31;;;;;;;111.05;50.85;;;;;;;7.02;97.17;98903.13;1671780;85;25604;-56
2023/11/12 01:32:59;;;;;;;102.70;50.73;;;;;;;7.02;97.10;98899.09;1671807;85;26188;-54
2023/11/12 01:35:26;;;;;;;110.27;51.07;;;;;;;7.02;97.32;98895.06;1672142;85;25499;-54
2023/11/12 01:37:54;;;;;;;108.90;49.95;;;;;;;7.01;97.39;98898.29;1671930;85;27448;-54
2023/11/12 01:40:22;;;;;;;106.10;50.55;;;;;;;7.02;97.57;98897.75;1671981;85;25451;-55
2023/11/12 01:42:50;;;;;;;100.95;50.17;;;;;;;7.02;97.78;98897.19;1671864;85;25642;-53
2023/11/12 01:45:17;;;;;;;102.85;49.23;;;;;;;7.02;97.61;98899.88;1671834;85;26026;-56
2023/11/12 01:47:47;;;;;;;109.35;52.00;;;;;;;7.01;97.62;98898.29;1671885;85;25467;-56
2023/11/12 01:50:15;;;;;;;106.85;49.90;;;;;;;7.03;97.72;98896.09;1671847;85;27977;-53
2023/11/12 01:52:45;;;;;;;108.20;51.00;;;;;;;7.02;97.69;98897.75;1671825;85;25431;-55
2023/11/12 01:55:13;;;;;;;111.42;50.75;;;;;;;7.01;97.73;98898.85;1672139;85;25637;-56
2023/11/12 01:57:42;;;;;;;110.73;51.60;;;;;;;7.01;97.72;98905.58;1703425;83;25629;-55
2023/11/12 02:00:15;;;;;;;106.05;50.83;;;;;;;7.00;97.67;98901.30;1698983;84;25422;-54
2023/11/12 02:02:42;;;;;;;106.95;50.95;;;;;;;7.00;97.82;98908.83;1698232;84;27913;-57
2023/11/12 02:05:09;;;;;;;118.47;53.85;;;;;;;7.00;97.87;98901.30;1698593;84;25442;-55
2023/11/12 02:07:47;;;;;;;112.97;51.48;;;;;;;7.00;97.88;98903.45;1698680;84;25646;-55
2023/11/12 02:10:16;;;;;;;105.92;50.50;;;;;;;7.01;97.84;98910.39;1698529;84;26299;-56
2023/11/12 02:12:48;;;;;;;116.85;52.30;;;;;;;7.00;97.81;98910.70;1718539;83;25640;-56
2023/11/12 02:15:17;;;;;;;123.97;51.35;;;;;;;6.98;97.76;98901.64;1698737;84;27339;-55
2023/11/12 02:17:45;;;;;;;114.30;49.85;;;;;;;6.95;97.53;98896.08;1698767;84;25466;-55
2023/11/12 02:20:15;;;;;;;117.37;49.95;;;;;;;6.90;97.63;98888.43;1698875;84;25588;-56
2023/11/12 02:22:43;;;;;;;108.85;50.88;;;;;;;6.85;97.63;98887.81;1698647;84;25672;-55
2023/11/12 02:25:13;;;;;;;120.77;49.38;;;;;;;6.79;97.73;98899.26;1698716;84;25583;-53
2023/11/12 02:27:40;;;;;;;111.77;48.78;;;;;;;6.73;97.90;98894.61;1690785;83;27219;-56
2023/11/12 02:30:09;;;;;;;109.67;49.93;;;;;;;6.72;98.05;98902.45;1698599;84;25653;-53
2023/11/12 02:32:38;;;;;;;109.48;49.18;;;;;;;6.72;98.21;98899.77;1698819;84;28044;-56
2023/11/12 02:35:07;;;;;;;109.30;48.92;;;;;;;6.72;98.46;98892.23;1698670;84;26301;-53
2023/11/12 02:37:35;;;;;;;;;;;;;;;6.69;98.32;98895.55;1701237;84;25458;-53
2023/11/12 02:40:04;;;;;;;112.22;47.38;;;;;;;6.70;98.54;98901.95;1718488;83;27415;-53
2023/11/12 02:42:33;;;;;;;100.95;46.20;;;;;;;6.72;98.86;98894.39;1698523;84;25420;-52
2023/11/12 02:45:00;;;;;;;115.00;48.80;;;;;;;6.73;98.86;98904.02;1698729;84;25631;-52
2023/11/12 02:47:27;;;;;;;99.15;43.92;;;;;;;6.75;98.76;98904.27;1698627;84;25703;-52
2023/11/12 02:50:14;;;;;;;107.12;47.23;;;;;;;6.75;98.55;98900.23;1698690;84;25401;-52
2023/11/12 02:52:41;;;;;;;104.07;47.03;;;;;;;6.75;98.66;98902.92;1698677;84;27356;-52
2023/11/12 02:55:08;;;;;;;99.55;45.40;;;;;;;6.73;98.58;98910.73;1698519;84;25711;-53
2023/11/12 02:57:35;;;;;;;103.78;46.83;;;;;;;6.74;98.61;98914.20;1696169;84;25627;-52
2023/11/12 03:00:04;;;;;;;105.55;46.02;;;;;;;6.77;98.78;98922.98;1694054;84;25675;-54
2023/11/12 03:02:32;;;;;;;97.42;45.65;;;;;;;6.77;98.59;98917.61;1674272;84;25502;-52
2023/11/12 03:04:59;;;;;;;94.93;44.77;;;;;;;6.79;98.60;98919.98;1694336;84;27326;-52
2023/11/12 03:07:27;;;;;;;95.67;45.67;;;;;;;6.78;98.38;98921.89;1694123;84;25721;-53
2023/11/12 03:09:54;;;;;;;94.87;46.18;;;;;;;6.77;98.27;98922.98;1694239;84;25589;-53
2023/11/12 03:12:22;;;;;;;94.72;45.17;;;;;;;6.79;98.26;98926.70;1694117;84;25629;-56
2023/11/12 03:14:49;;;;;;;101.10;47.10;;;;;;;6.81;98.38;98921.80;1694170;84;25435;-53
2023/11/12 03:17:16;;;;;;;97.40;44.70;;;;;;;6.81;98.29;98926.63;1694137;84;27381;-54
2023/11/12 03:19:44;;;;;;;91.72;43.50;;;;;;;6.83;98.28;98929.01;1694060;84;25632;-52
2023/11/12 03:22:12;;;;;;;90.20;42.33;;;;;;;6.85;98.49;98938.88;1694154;84;25648;-56
2023/11/12 03:24:39;;;;;;;92.05;41.98;;;;;;;6.88;98.34;98940.94;1694080;84;26151;-54
2023/11/12 03:27:08;;;;;;;86.75;40.38;;;;;;;6.89;98.26;98939.81;1694111;84;25583;-54
2023/11/12 03:29:36;;;;;;;87.97;41.95;;;;;;;6.89;97.97;98946.54;1694126;84;28357;-54
2023/11/12 03:32:04;;;;;;;86.45;41.80;;;;;;;6.88;97.71;98944.41;1693829;84;25414;-53
2023/11/12 03:34:32;;;;;;;81.32;39.95;;;;;;;6.86;97.62;98939.91;1694134;84;25638;-52
2023/11/12 03:36:59;;;;;;;80.87;39.58;;;;;;;6.86;97.64;98939.91;1694073;84;25737;-52
2023/11/12 03:39:25;;;;;;;89.77;41.00;;;;;;;6.86;97.65;98935.06;1694112;84;25628;-52
2023/11/12 03:41:52;;;;;;;79.92;39.85;;;;;;;6.86;97.60;98945.29;1694073;84;27431;-52
2023/11/12 03:44:18;;;;;;;80.87;39.78;;;;;;;6.86;97.59;98939.09;1694097;84;25613;-53
2023/11/12 03:46:45;;;;;;;90.85;40.85;;;;;;;6.87;97.62;98935.31;1694206;84;25591;-54
2023/11/12 03:49:12;;;;;;;87.10;39.42;;;;;;;6.87;97.58;98934.75;1694038;84;25641;-53
2023/11/12 03:51:39;;;;;;;83.65;38.60;;;;;;;6.86;97.52;98935.06;1694107;84;25461;-53
2023/11/12 03:54:07;;;;;;;83.33;40.40;;;;;;;6.86;97.44;98937.23;1694101;84;27351;-52
2023/11/12 03:56:35;;;;;;;83.27;39.03;;;;;;;6.86;97.38;98945.29;1659963;85;25787;-51
2023/11/12 03:59:02;;;;;;;81.28;37.90;;;;;;;6.86;97.17;98936.41;1708139;84;25418;-52
2023/11/12 04:01:29;;;;;;;80.30;38.90;;;;;;;6.85;97.08;98937.54;1683265;84;25720;-52
2023/11/12 04:03:56;;;;;;;86.70;39.98;;;;;;;6.82;97.04;98935.48;1709038;84;25474;-56
2023/11/12 04:06:23;;;;;;;86.20;40.20;;;;;;;6.82;97.01;98940.29;1709026;84;27990;-56
2023/11/12 04:08:51;;;;;;;83.72;39.53;;;;;;;6.80;96.97;98935.02;1708932;84;25663;-56
2023/11/12 04:11:18;;;;;;;79.22;37.42;;;;;;;6.78;96.90;98937.23;1709000;83;25497;-56
2023/11/12 04:13:45;;;;;;;82.30;37.13;;;;;;;6.75;96.90;98927.89;1709018;84;25685;-57
2023/11/12 04:16:12;;;;;;;84.35;36.83;;;;;;;6.72;96.77;98925.83;1692948;84;25603;-57
2023/11/12 04:18:39;;;;;;;81.20;38.10;;;;;;;6.67;96.66;98930.02;1709049;84;27357;-53
2023/11/12 04:21:06;;;;;;;82.82;36.83;;;;;;;6.64;96.64;98934.14;1692389;84;25685;-52
2023/11/12 04:23:32;;;;;;;77.70;35.88;;;;;;;6.61;96.71;98938.80;1708963;84;25608;-52
2023/11/12 04:25:59;;;;;;;83.95;37.42;;;;;;;6.59;96.88;98935.64;1708904;84;25600;-52
2023/11/12 04:28:28;;;;;;;76.47;34.63;;;;;;;6.58;96.90;98942.11;1708975;84;25606;-52
2023/11/12 04:30:56;;;;;;;84.05;36.33;;;;;;;6.54;96.82;98943.85;1709093;84;28014;-53
2023/11/12 04:33:24;;;;;;;77.05;35.70;;;;;;;6.53;97.02;98944.39;1692255;83;25649;-53
2023/11/12 04:35:52;;;;;;;76.57;36.10;;;;;;;6.53;97.18;98946.29;1708965;84;25627;-55
2023/11/12 04:38:20;;;;;;;79.75;34.65;;;;;;;6.53;97.38;98946.29;1708904;84;26261;-53
2023/11/12 04:40:48;;;;;;;73.65;34.55;;;;;;;6.53;97.28;98957.03;1708925;84;25450;-53
2023/11/12 04:43:17;;;;;;;82.05;35.00;;;;;;;6.51;97.12;98950.63;1708919;84;27977;-53
2023/11/12 04:45:44;;;;;;;80.32;33.83;;;;;;;6.50;97.22;98959.00;1708858;84;25467;-54
2023/11/12 04:48:14;;;;;;;86.00;36.50;;;;;;;6.48;97.09;98958.53;1708928;84;25391;-54
2023/11/12 04:50:40;;;;;;;;;;;;;;;6.46;97.11;98955.38;1711439;84;26263;-56
2023/11/12 04:53:08;;;;;;;77.55;33.60;;;;;;;6.43;97.11;98955.44;1708965;84;25430;-53
2023/11/12 04:55:35;;;;;;;71.17;31.62;;;;;;;6.40;97.20;98956.05;1692687;84;27201;-56
2023/11/12 04:58:04;;;;;;;82.02;34.48;;;;;;;6.38;97.33;98956.92;1711980;83;25467;-52
2023/11/12 05:00:31;;;;;;;78.92;33.50;;;;;;;6.38;97.42;98961.52;1703811;84;25579;-53
2023/11/12 05:02:58;;;;;;;81.20;34.15;;;;;;;6.37;97.55;98967.45;1703876;84;25630;-55
2023/11/12 05:05:26;;;;;;;79.00;34.83;;;;;;;6.35;97.46;98955.67;1703883;84;25671;-53
2023/11/12 05:07:55;;;;;;;79.12;34.50;;;;;;;6.35;97.54;98961.05;1704080;84;27921;-54
2023/11/12 05:10:22;;;;;;;76.28;33.78;;;;;;;6.33;97.54;98956.55;1703758;84;25474;-53
2023/11/12 05:12:49;;;;;;;79.60;33.75;;;;;;;6.34;97.80;98957.33;1672882;84;25420;-52
2023/11/12 05:15:17;;;;;;;84.70;34.48;;;;;;;6.33;97.65;98963.79;1703818;84;26466;-53
2023/11/12 05:17:43;;;;;;;84.67;33.80;;;;;;;6.32;97.68;98963.56;1703866;84;25399;-53
2023/11/12 05:20:13;;;;;;;81.40;34.10;;;;;;;6.32;97.77;98965.69;1672850;84;27775;-52
2023/11/12 05:22:40;;;;;;;78.65;33.13;;;;;;;6.29;97.69;98973.02;1703909;84;27834;-54
2023/11/12 05:25:13;;;;;;;82.47;32.50;;;;;;;6.31;98.00;98970.81;1703899;84;25484;-56
2023/11/12 05:27:40;;;;;;;72.82;31.25;;;;;;;6.33;98.18;98966.47;1703828;84;27810;-57
2023/11/12 05:30:09;;;;;;;76.80;32.78;;;;;;;6.32;98.15;98968.38;1703862;84;25663;-56
2023/11/12 05:32:36;;;;;;;75.20;32.40;;;;;;;6.32;98.05;98973.75;1675995;84;33409;-56
2023/11/12 05:35:04;;;;;;;77.30;32.25;;;;;;;6.34;98.08;98974.78;1703818;83;25516;-56
2023/11/12 05:37:31;;;;;;;79.32;31.90;;;;;;;6.34;98.02;98978.81;1703962;84;25583;-56
2023/11/12 05:39:58;;;;;;;74.42;31.97;;;;;;;6.33;97.95;98979.37;1672665;84;26200;-53
2023/11/12 05:42:25;;;;;;;75.32;32.15;;;;;;;6.33;97.85;98985.27;1703822;84;25631;-55
2023/11/12 05:44:52;;;;;;;77.90;31.27;;;;;;;6.33;98.06;98985.27;1703825;84;28279;-55
2023/11/12 05:47:20;;;;;;;70.90;30.48;;;;;;;6.33;98.02;98989.30;1703742;84;25747;-56
2023/11/12 05:49:48;;;;;;;76.22;32.35;;;;;;;6.32;98.02;98987.73;1703858;84;25425;-53
2023/11/12 05:52:15;;;;;;;75.35;31.02;;;;;;;6.29;97.98;98993.17;1703794;84;27770;-56
2023/11/12 05:54:42;;;;;;;70.67;29.60;;;;;;;6.30;98.29;98997.45;1703892;84;25598;-56
2023/11/12 05:57:08;;;;;;;65.03;27.87;;;;;;;6.31;98.36;99000.35;1703935;84;27432;-53
2023/11/12 05:59:35;;;;;;;67.37;27.73;;;;;;;6.31;98.25;99004.95;1694484;84;25812;-54
2023/11/12 06:02:01;;;;;;;63.65;28.02;;;;;;;6.32;98.42;99001.95;1668853;84;25498;-55
2023/11/12 06:04:29;;;;;;;66.30;28.90;;;;;;;6.34;98.37;99002.42;1693948;84;25632;-53
2023/11/12 06:06:55;;;;;;;62.60;26.80;;;;;;;6.35;98.61;99006.70;1694074;84;25597;-53
2023/11/12 06:09:22;;;;;;;60.65;26.90;;;;;;;6.37;98.37;99011.77;1694100;84;27283;-56
2023/11/12 06:11:49;;;;;;;66.10;27.35;;;;;;;6.38;98.41;99007.95;1693883;84;25482;-54
2023/11/12 06:14:16;;;;;;;64.15;26.25;;;;;;;6.39;98.27;99014.14;1693985;84;25626;-52
2023/11/12 06:16:42;;;;;;;57.43;25.70;;;;;;;6.39;98.21;99017.61;1693998;84;25622;-53
2023/11/12 06:19:09;;;;;;;55.63;24.75;;;;;;;6.39;98.28;99016.27;1694044;84;25649;-52
2023/11/12 06:21:35;;;;;;;54.45;25.10;;;;;;;6.39;98.17;99005.52;1693956;84;27443;-55
2023/11/12 06:24:06;;;;;;;55.48;25.77;;;;;;;6.42;98.22;99010.80;1693947;84;25493;-52
2023/11/12 06:26:34;;;;;;;55.38;25.82;;;;;;;6.43;98.38;99015.87;1694166;84;25399;-55
2023/11/12 06:29:00;;;;;;;54.53;24.70;;;;;;;6.44;98.20;99016.13;1693976;84;25647;-53
2023/11/12 06:31:27;;;;;;;53.08;25.27;;;;;;;6.43;98.06;99016.43;1694055;84;25659;-52
2023/11/12 06:33:54;;;;;;;54.35;26.75;;;;;;;6.45;98.23;99020.41;1694028;84;27237;-53
2023/11/12 06:36:21;;;;;;;53.58;25.40;;;;;;;6.49;98.24;99017.87;1693929;84;25416;-54
2023/11/12 06:38:47;;;;;;;58.90;26.12;;;;;;;6.49;97.97;99023.25;1694040;84;25580;-55
2023/11/12 06:41:14;;;;;;;61.73;27.13;;;;;;;6.48;97.88;99015.72;1668777;84;25598;-55
2023/11/12 06:43:41;;;;;;;61.75;27.13;;;;;;;6.49;97.77;99022.69;1694185;84;25611;-52
2023/11/12 06:46:07;;;;;;;57.08;26.33;;;;;;;6.49;97.63;99024.59;1694105;84;27338;-54
2023/11/12 06:48:34;;;;;;;58.28;26.93;;;;;;;6.50;97.77;99024.28;1694087;84;25490;-54
2023/11/12 06:51:02;;;;;;;57.67;27.05;;;;;;;6.51;97.83;99025.07;1694240;84;25594;-52
2023/11/12 06:53:29;;;;;;;57.23;25.62;;;;;;;6.56;97.94;99026.27;1694113;84;25653;-52
2023/11/12 06:55:55;;;;;;;53.02;27.02;;;;;;;6.60;98.10;99025.87;1669214;84;25672;-55
2023/11/12 06:58:24;;;;;;;55.40;26.73;;;;;;;6.63;97.89;99023.13;1689949;84;27938;-51
2023/11/12 07:00:51;;;;;;;60.58;26.50;;;;;;;6.65;97.74;99022.25;1679437;85;25681;-54
2023/11/12 07:03:19;;;;;;;55.58;27.37;;;;;;;6.66;97.42;99029.22;1647252;85;25608;-55
2023/11/12 07:05:47;;;;;;;49.83;26.20;;;;;;;6.67;97.34;99022.72;1679206;85;26253;-52
2023/11/12 07:08:15;;;;;;;56.77;25.27;;;;;;;6.68;97.28;99038.53;1713639;83;25398;-54
2023/11/12 07:10:43;;;;;;;54.30;26.40;;;;;;;6.68;97.09;99033.16;1713588;83;27790;-54
2023/11/12 07:13:10;;;;;;;56.25;26.87;;;;;;;6.67;96.87;99034.25;1713617;83;25642;-53
2023/11/12 07:15:38;;;;;;;58.17;26.70;;;;;;;6.69;96.72;99031.25;1713611;83;25518;-54
2023/11/12 07:18:05;;;;;;;53.45;25.57;;;;;;;6.69;96.71;99048.19;1713576;83;26404;-55
2023/11/12 07:20:33;;;;;;;52.23;25.72;;;;;;;6.73;97.10;99040.29;1713608;83;25443;-54
2023/11/12 07:23:01;;;;;;;53.30;26.00;;;;;;;6.79;97.03;99043.61;1713520;83;29488;-53
2023/11/12 07:25:29;;;;;;;48.38;23.45;;;;;;;6.81;96.49;99044.08;1713529;83;25576;-55
2023/11/12 07:27:56;;;;;;;47.90;25.12;;;;;;;6.81;96.46;99040.86;1713859;83;25580;-52
2023/11/12 07:30:23;;;;;;;48.08;21.87;;;;;;;6.88;96.66;99045.21;1713512;83;27803;-52
2023/11/12 07:32:49;;;;;;;48.73;24.35;;;;;;;6.94;96.50;99050.44;1713591;83;25495;-55
2023/11/12 07:35:16;;;;;;;49.38;25.17;;;;;;;7.00;96.65;99049.97;1713590;83;27929;-54
2023/11/12 07:37:43;;;;;;;45.95;23.90;;;;;;;7.05;96.45;99053.84;1713506;83;25474;-53
2023/11/12 07:40:15;;;;;;;47.03;23.98;;;;;;;7.11;96.26;99055.81;1713576;83;25589;-54
2023/11/12 07:42:42;;;;;;;43.63;23.20;;;;;;;7.20;96.86;99051.78;1713464;83;26223;-54
2023/11/12 07:45:10;;;;;;;45.58;24.40;;;;;;;7.28;96.71;99061.20;1713591;83;25645;-54
2023/11/12 07:47:38;;;;;;;44.50;22.85;;;;;;;7.32;95.92;99058.69;1713570;83;27350;-54
2023/11/12 07:50:07;;;;;;;42.93;23.45;;;;;;;7.40;95.66;99067.28;1713481;83;25454;-55
2023/11/12 07:52:35;;;;;;;46.08;23.83;;;;;;;7.49;95.84;99068.63;1713715;83;25482;-54
2023/11/12 07:55:05;;;;;;;46.23;23.42;;;;;;;7.55;95.61;99068.70;1713534;83;26190;-56
2023/11/12 07:57:33;;;;;;;43.50;23.27;;;;;;;7.66;95.50;99073.20;1713632;83;25675;-54
2023/11/12 08:00:00;;;;;;;45.10;21.77;;;;;;;7.71;94.28;99071.69;1711522;83;27405;-53
2023/11/12 08:02:28;;;;;;;39.67;20.88;;;;;;;7.76;93.93;99073.42;1698986;84;25486;-57
2023/11/12 08:04:55;;;;;;;43.68;23.20;;;;;;;7.77;93.42;99072.33;1708963;84;25649;-53
2023/11/12 08:07:23;;;;;;;42.83;22.07;;;;;;;7.76;92.53;99076.90;1708881;84;25671;-56
2023/11/12 08:09:49;;;;;;;41.63;22.85;;;;;;;7.79;92.50;99078.17;1709064;84;25593;-52
2023/11/12 08:12:17;;;;;;;41.92;20.50;;;;;;;7.80;91.87;99094.58;1709043;84;27382;-54
2023/11/12 08:14:44;;;;;;;37.63;21.52;;;;;;;7.80;91.98;99089.97;1708851;84;25648;-54
2023/11/12 08:17:12;;;;;;;38.48;21.55;;;;;;;7.78;91.11;99093.55;1692742;84;25557;-56
2023/11/12 08:19:39;;;;;;;40.75;22.17;;;;;;;7.76;90.46;99093.61;1708874;84;27835;-56
2023/11/12 08:22:05;;;;;;;35.73;19.40;;;;;;;7.75;91.02;99092.05;1708936;84;25495;-53
2023/11/12 08:24:32;;;;;;;36.77;20.00;;;;;;;7.85;91.35;99105.95;1708949;84;27260;-53
2023/11/12 08:26:59;;;;;;;39.33;19.82;;;;;;;7.90;90.51;99103.66;1708847;84;25455;-55
2023/11/12 08:29:26;;;;;;;36.98;19.85;;;;;;;7.91;90.31;99097.15;1708940;84;25573;-55
2023/11/12 08:31:52;;;;;;;37.65;20.85;;;;;;;7.93;89.70;99116.46;1708871;84;25669;-54
2023/11/12 08:34:21;;;;;;;38.00;20.92;;;;;;;7.99;90.49;99113.06;1708886;84;25804;-54
2023/11/12 08:36:49;;;;;;;34.35;20.37;;;;;;;8.13;90.06;99106.92;1709004;84;27320;-54
2023/11/12 08:39:17;;;;;;;36.10;19.95;;;;;;;8.27;89.78;99110.75;1709104;84;25642;-53
2023/11/12 08:41:46;;;;;;;34.80;20.32;;;;;;;8.46;90.75;99113.66;1708915;84;25416;-55
2023/11/12 08:44:17;;;;;;;;;;;;;;;8.60;89.50;99116.94;1711424;84;25597;-53
2023/11/12 08:46:43;;;;;;;33.20;18.73;;;;;;;8.66;88.24;99121.58;1708243;83;25464;-53
2023/11/12 08:49:09;;;;;;;31.17;17.67;;;;;;;8.82;88.56;99121.81;1708924;84;27312;-53
2023/11/12 08:51:37;;;;;;;32.20;19.50;;;;;;;9.06;88.03;99119.84;1708844;84;25584;-53
2023/11/12 08:54:06;;;;;;;34.58;19.37;;;;;;;9.19;88.15;99122.86;1708928;84;25661;-55
2023/11/12 08:56:33;;;;;;;36.10;19.37;;;;;;;9.50;87.76;99120.33;1709032;84;25626;-52
2023/11/12 08:59:00;;;;;;;25.85;16.50;;;;;;;9.88;88.86;99118.80;1708809;84;25426;-55
2023/11/12 09:01:27;;;;;;;30.85;18.92;;;;;;;10.29;87.59;99120.38;1708862;84;29530;-55
2023/11/12 09:03:54;;;;;;;30.50;16.20;;;;;;;10.52;86.31;99126.73;1708812;84;25876;-52
2023/11/12 09:06:22;;;;;;;29.02;17.67;;;;;;;10.78;84.28;99134.55;1708936;84;25568;-55
2023/11/12 09:08:49;;;;;;;25.35;15.20;;;;;;;11.02;84.47;99129.67;1709132;84;25690;-53
2023/11/12 09:11:15;;;;;;;22.02;14.47;;;;;;;11.26;82.22;99128.84;1708932;84;25591;-55
2023/11/12 09:13:45;;;;;;;19.70;13.18;;;;;;;11.68;83.57;99127.16;1708889;84;27713;-54
2023/11/12 09:16:13;;;;;;;20.80;13.30;;;;;;;12.11;80.91;99134.33;1708809;84;25485;-55
2023/11/12 09:18:40;;;;;;;23.00;14.13;;;;;;;12.28;80.67;99138.06;1708871;84;25457;-53
2023/11/12 09:21:07;;;;;;;27.05;14.68;;;;;;;12.52;79.42;99144.47;1708825;84;25614;-54
2023/11/12 09:23:34;;;;;;;20.55;13.62;;;;;;;12.82;78.34;99142.09;1708909;84;25643;-54
2023/11/12 09:26:02;;;;;;;20.45;13.78;;;;;;;13.12;77.04;99151.67;1708890;84;27334;-53
2023/11/12 09:28:30;;;;;;;18.37;12.43;;;;;;;13.38;75.72;99152.47;1708804;83;26005;-55
2023/11/12 09:30:58;;;;;;;18.92;12.05;;;;;;;13.59;73.10;99144.77;1683288;84;25439;-54
2023/11/12 09:33:26;;;;;;;16.02;11.97;;;;;;;13.82;73.10;99148.93;1708832;84;25675;-58
2023/11/12 09:35:52;;;;;;;17.60;11.22;;;;;;;14.25;72.51;99148.14;1708858;84;25573;-57
2023/11/12 09:38:21;;;;;;;17.52;11.22;;;;;;;14.57;70.94;99142.70;1708896;84;28175;-56
2023/11/12 09:40:49;;;;;;;15.10;10.70;;;;;;;14.88;70.84;99150.41;1708801;84;25734;-56
2023/11/12 09:43:16;;;;;;;15.68;11.08;;;;;;;15.09;66.47;99149.93;1692567;84;25736;-57
2023/11/12 09:45:46;;;;;;;14.50;10.43;;;;;;;14.92;64.74;99149.88;1683545;84;25745;-55
2023/11/12 09:48:42;;;;;;;14.25;10.05;;;;;;;14.89;66.63;99149.83;1709003;84;25638;-58
2023/11/12 09:51:11;;;;;;;17.07;11.28;;;;;;;15.13;65.61;99144.53;1705824;83;27397;-55
2023/11/12 09:53:50;;;;;;;16.30;11.53;;;;;;;15.17;65.27;99148.66;1708957;84;25944;-56
2023/11/12 09:56:16;;;;;;;16.02;11.80;;;;;;;15.46;65.05;99159.38;1708750;83;25474;-54
2023/11/12 09:58:52;;;;;;;16.85;11.63;;;;;;;15.77;64.42;99152.02;1709211;83;25767;-55
2023/11/12 10:01:15;;;;;;;15.40;11.33;;;;;;;16.38;64.27;99156.17;1717513;83;25456;-55
2023/11/12 10:03:48;;;;;;;16.48;10.75;;;;;;;17.05;63.65;99153.02;1718610;83;27925;-56
2023/11/12 10:06:16;;;;;;;15.85;10.80;;;;;;;17.35;60.29;99157.52;1718528;83;25441;-57
2023/11/12 10:08:45;;;;;;;14.53;10.10;;;;;;;17.48;59.47;99161.45;1692450;83;25849;-58
2023/11/12 10:11:24;;;;;;;14.00;10.80;;;;;;;17.41;58.84;99164.16;1717710;83;25734;-56
2023/11/12 10:13:52;;;;;;;16.65;10.75;;;;;;;16.99;56.96;99162.72;1717734;83;25734;-56
2023/11/12 10:16:31;;;;;;;15.65;10.45;;;;;;;16.48;56.81;99165.63;1718741;83;27159;-58
2023/11/12 10:19:14;;;;;;;15.45;10.93;;;;;;;16.06;56.62;99163.45;1718721;83;25621;-58
2023/11/12 10:22:00;;;;;;;17.70;11.55;;;;;;;15.78;57.08;99163.92;1692349;83;25446;-56
2023/11/12 10:24:30;;;;;;;15.60;10.93;;;;;;;15.74;57.41;99165.77;1718736;83;25634;-56
2023/11/12 10:27:06;;;;;;;18.23;11.70;;;;;;;15.75;56.26;99157.01;1718891;83;25650;-59
2023/11/12 10:29:32;;;;;;;18.45;12.40;;;;;;;15.95;56.69;99162.53;1718749;83;28074;-58
2023/11/12 10:31:59;;;;;;;17.42;12.00;;;;;;;16.28;56.36;99161.51;1718634;83;26255;-58
2023/11/12 10:34:28;;;;;;;16.00;11.85;;;;;;;16.14;55.33;99158.86;1718724;83;25504;-59
2023/11/12 10:37:14;;;;;;;18.33;12.87;;;;;;;15.93;55.57;99152.58;1718911;83;25622;-54
2023/11/12 10:39:49;;;;;;;19.15;13.30;;;;;;;15.59;54.53;99161.30;1718279;83;25640;-59
2023/11/12 10:42:26;;;;;;;22.25;14.25;;;;;;;14.94;54.30;99163.13;1718789;83;27314;-58
2023/11/12 10:45:00;;;;;;;20.88;14.78;;;;;;;14.30;52.70;99158.72;1718681;83;25570;-59
2023/11/12 10:47:30;;;;;;;18.73;13.80;;;;;;;13.72;55.63;99165.78;1718756;83;25646;-59
2023/11/12 10:49:56;;;;;;;20.95;14.15;;;;;;;13.29;55.81;99163.50;1718741;83;25611;-56
2023/11/12 10:52:26;;;;;;;22.85;14.83;;;;;;;12.86;56.35;99174.74;1718758;83;25409;-57
2023/11/12 10:54:58;;;;;;;24.75;16.45;;;;;;;12.44;56.62;99171.19;1718739;83;27340;-58
2023/11/12 10:57:29;;;;;;;22.62;16.15;;;;;;;12.18;57.18;99168.97;1718648;83;25383;-58
2023/11/12 11:00:00;;;;;;;24.27;15.78;;;;;;;11.84;57.73;99176.53;1718627;83;25568;-55
2023/11/12 11:02:32;;;;;;;26.37;19.32;;;;;;;11.71;59.85;99177.13;1718670;83;26331;-57
2023/11/12 11:04:59;;;;;;;24.92;18.52;;;;;;;11.67;59.62;99181.09;1718696;83;25575;-57
2023/11/12 11:07:27;;;;;;;25.15;17.65;;;;;;;11.42;59.20;99184.98;1718818;83;27522;-57
2023/11/12 11:09:56;;;;;;;33.02;23.20;;;;;;;11.05;59.25;99179.61;1718606;83;25386;-56
2023/11/12 11:12:26;;;;;;;25.32;18.00;;;;;;;10.78;59.71;99185.94;1718856;83;25465;-57
2023/11/12 11:14:52;;;;;;;24.40;17.57;;;;;;;10.59;60.75;99201.32;1718830;83;25606;-57
2023/11/12 11:17:39;;;;;;;23.75;16.77;;;;;;;10.33;60.91;99194.85;1718839;83;25402;-55
2023/11/12 11:20:11;;;;;;;23.35;15.95;;;;;;;10.19;62.01;99196.47;1718792;83;27748;-52
2023/11/12 11:22:36;;;;;;;22.52;16.15;;;;;;;9.97;61.79;99191.66;1718086;83;25838;-57
2023/11/12 11:25:29;;;;;;;19.92;15.20;;;;;;;9.83;61.99;99201.95;1691886;83;25571;-58
2023/11/12 11:28:22;;;;;;;29.63;15.65;;;;;;;9.60;62.24;99209.58;1657443;86;25655;-62